createdAt,value
2019-02-24T00:01:28.982Z,18.40
2019-02-24T00:03:58.447Z,17.20
2019-02-24T00:06:28.103Z,17.40
2019-02-24T00:08:57.643Z,16.90
2019-02-24T00:11:26.896Z,17.45
2019-02-24T00:13:56.252Z,18.25
2019-02-24T00:16:25.708Z,18.02
2019-02-24T00:18:55.072Z,18.17
2019-02-24T00:21:24.512Z,16.90
2019-02-24T00:23:54.098Z,17.40
2019-02-24T00:26:23.753Z,18.55
2019-02-24T00:28:54.300Z,17.20
2019-02-24T00:31:23.767Z,16.70
2019-02-24T00:33:53.734Z,15.48
2019-02-24T00:36:22.989Z,17.60
2019-02-24T00:38:52.192Z,16.80
2019-02-24T00:41:21.746Z,16.15
2019-02-24T00:43:51.720Z,16.77
2019-02-24T00:46:21.166Z,16.80
2019-02-24T00:48:50.533Z,16.45
2019-02-24T00:51:19.983Z,16.57
2019-02-24T00:53:49.354Z,15.75
2019-02-24T00:56:19.017Z,15.75
2019-02-24T00:58:48.481Z,16.97
2019-02-24T01:01:18.037Z,15.90
2019-02-24T01:03:47.497Z,15.78
2019-02-24T01:06:17.038Z,14.95
2019-02-24T01:08:46.490Z,16.00
2019-02-24T01:11:15.864Z,15.28
2019-02-24T01:13:45.330Z,15.70
2019-02-24T01:16:14.822Z,14.50
2019-02-24T01:18:44.164Z,14.50
2019-02-24T01:21:13.810Z,14.30
2019-02-24T01:23:43.369Z,15.05
2019-02-24T01:26:12.818Z,14.70
2019-02-24T01:28:42.377Z,15.08
2019-02-24T01:31:11.822Z,13.88
2019-02-24T01:33:41.564Z,15.13
2019-02-24T01:36:11.012Z,15.53
2019-02-24T01:38:40.382Z,15.45
2019-02-24T01:41:09.931Z,16.02
2019-02-24T01:43:39.598Z,16.15
2019-02-24T01:46:09.057Z,15.00
2019-02-24T01:48:38.793Z,15.32
2019-02-24T01:51:08.041Z,16.75
2019-02-24T01:53:37.235Z,15.75
2019-02-24T01:56:06.715Z,15.53
2019-02-24T01:58:35.967Z,15.68
2019-02-24T02:01:05.537Z,15.65
2019-02-24T02:03:35.269Z,14.53
2019-02-24T02:06:04.923Z,15.35
2019-02-24T02:08:34.385Z,14.18
2019-02-24T02:11:03.735Z,14.33
2019-02-24T02:13:32.993Z,13.95
2019-02-24T02:16:02.240Z,13.65
2019-02-24T02:18:31.810Z,12.53
2019-02-24T02:21:01.063Z,14.93
2019-02-24T02:23:30.628Z,14.25
2019-02-24T02:26:00.103Z,15.32
2019-02-24T02:28:29.641Z,15.30
2019-02-24T02:30:58.889Z,15.65
2019-02-24T02:33:28.264Z,14.65
2019-02-24T02:35:58.709Z,15.18
2019-02-24T02:38:28.271Z,14.75
2019-02-24T02:40:57.735Z,13.20
2019-02-24T02:43:27.479Z,14.38
2019-02-24T02:45:56.726Z,15.32
2019-02-24T02:48:26.095Z,14.53
2019-02-24T02:50:55.333Z,15.60
2019-02-24T02:53:24.808Z,15.03
2019-02-24T02:55:54.149Z,14.20
2019-02-24T02:58:23.614Z,14.60
2019-02-24T03:00:53.161Z,14.73
2019-02-24T03:03:22.636Z,15.18
2019-02-24T03:05:54.231Z,13.93
2019-02-24T03:08:25.125Z,14.93
2019-02-24T03:10:54.486Z,15.20
2019-02-24T03:13:23.676Z,14.60
2019-02-24T03:15:53.024Z,14.15
2019-02-24T03:18:22.395Z,15.40
2019-02-24T03:20:51.854Z,15.83
2019-02-24T03:23:21.126Z,14.55
2019-02-24T03:25:50.488Z,15.45
2019-02-24T03:28:19.926Z,12.90
2019-02-24T03:30:49.146Z,14.98
2019-02-24T03:33:18.586Z,13.45
2019-02-24T03:35:48.238Z,14.20
2019-02-24T03:38:17.738Z,14.25
2019-02-24T03:40:46.996Z,13.90
2019-02-24T03:43:16.382Z,14.75
2019-02-24T03:45:46.444Z,15.35
2019-02-24T03:48:16.022Z,13.20
2019-02-24T03:50:45.475Z,12.90
2019-02-24T03:53:14.742Z,14.35
2019-02-24T03:55:43.919Z,14.63
2019-02-24T03:58:13.581Z,14.87
2019-02-24T04:00:43.026Z,12.85
2019-02-24T04:03:12.591Z,13.30
2019-02-24T04:05:42.051Z,13.20
2019-02-24T04:08:11.398Z,14.85
2019-02-24T04:10:41.271Z,16.07
2019-02-24T04:13:10.438Z,15.78
2019-02-24T04:15:39.910Z,14.65
2019-02-24T04:18:09.352Z,14.47
2019-02-24T04:20:38.919Z,14.20
2019-02-24T04:23:08.187Z,15.32
2019-02-24T04:25:37.458Z,14.47
2019-02-24T04:28:07.414Z,14.93
2019-02-24T04:30:36.869Z,14.58
2019-02-24T04:33:06.218Z,14.90
2019-02-24T04:35:35.696Z,12.43
2019-02-24T04:38:05.451Z,13.62
2019-02-24T04:40:34.915Z,13.10
2019-02-24T04:43:04.187Z,14.10
2019-02-24T04:45:33.743Z,14.13
2019-02-24T04:48:03.017Z,12.60
2019-02-24T04:50:32.481Z,13.58
2019-02-24T04:53:02.003Z,15.45
2019-02-24T04:55:31.360Z,15.78
2019-02-24T04:58:01.019Z,16.05
2019-02-24T05:00:30.390Z,15.38
2019-02-24T05:02:59.575Z,15.20
2019-02-24T05:05:29.127Z,15.30
2019-02-24T05:07:58.407Z,15.88
2019-02-24T05:10:28.377Z,16.23
2019-02-24T05:12:57.827Z,15.28
2019-02-24T05:15:27.598Z,15.10
2019-02-24T05:17:57.042Z,15.55
2019-02-24T05:20:26.608Z,15.63
2019-02-24T05:22:55.800Z,15.75
2019-02-24T05:25:25.196Z,13.95
2019-02-24T05:27:54.629Z,14.03
2019-02-24T05:30:24.179Z,15.03
2019-02-24T05:32:53.841Z,14.50
2019-02-24T05:35:23.407Z,15.40
2019-02-24T05:37:52.651Z,14.28
2019-02-24T05:40:22.228Z,14.20
2019-02-24T05:42:51.492Z,14.78
2019-02-24T05:45:20.769Z,14.68
2019-02-24T05:47:50.068Z,14.68
2019-02-24T05:50:19.527Z,14.73
2019-02-24T05:52:48.733Z,14.95
2019-02-24T05:55:18.193Z,15.18
2019-02-24T05:57:47.851Z,15.35
2019-02-24T06:00:17.427Z,15.30
2019-02-24T06:02:46.975Z,15.32
2019-02-24T06:05:16.440Z,15.30
2019-02-24T06:07:45.616Z,15.65
2019-02-24T06:10:14.974Z,15.40
2019-02-24T06:12:44.726Z,16.67
2019-02-24T06:15:13.914Z,16.05
2019-02-24T06:17:44.844Z,15.70
2019-02-24T06:20:14.200Z,14.47
2019-02-24T06:22:43.552Z,14.83
2019-02-24T06:25:13.020Z,14.87
2019-02-24T06:27:42.271Z,15.45
2019-02-24T06:30:11.636Z,14.28
2019-02-24T06:32:41.976Z,13.98
2019-02-24T06:35:11.423Z,14.38
2019-02-24T06:37:41.075Z,14.75
2019-02-24T06:40:10.423Z,15.85
2019-02-24T06:42:39.971Z,15.23
2019-02-24T06:45:09.924Z,15.05
2019-02-24T06:47:39.770Z,15.63
2019-02-24T06:50:10.196Z,16.30
2019-02-24T06:52:39.723Z,14.83
2019-02-24T06:55:09.271Z,15.58
2019-02-24T06:57:40.927Z,15.40
2019-02-24T07:00:14.218Z,15.83
2019-02-24T07:02:41.986Z,14.33
2019-02-24T07:05:11.657Z,14.05
2019-02-24T07:07:40.902Z,15.35
2019-02-24T07:10:10.108Z,14.65
2019-02-24T07:12:39.767Z,14.23
2019-02-24T07:15:09.491Z,13.90
2019-02-24T07:17:38.973Z,14.35
2019-02-24T07:20:08.425Z,13.95
2019-02-24T07:22:37.769Z,15.00
2019-02-24T07:25:07.233Z,14.10
2019-02-24T07:27:36.479Z,15.28
2019-02-24T07:30:09.082Z,15.20
2019-02-24T07:32:38.436Z,14.78
2019-02-24T07:35:08.371Z,14.47
2019-02-24T07:37:38.034Z,13.78
2019-02-24T07:40:07.563Z,13.55
2019-02-24T07:42:37.038Z,15.78
2019-02-24T07:45:08.025Z,15.88
2019-02-24T07:47:37.206Z,15.18
2019-02-24T07:50:08.429Z,14.98
2019-02-24T07:52:37.941Z,15.40
2019-02-24T07:55:07.415Z,15.38
2019-02-24T07:57:36.978Z,15.20
2019-02-24T08:00:09.543Z,15.90
2019-02-24T08:02:38.802Z,16.42
2019-02-24T08:05:08.527Z,15.68
2019-02-24T08:07:37.981Z,15.20
2019-02-24T08:10:07.915Z,15.17
2019-02-24T08:12:37.492Z,14.47
2019-02-24T08:15:08.601Z,15.15
2019-02-24T08:17:37.932Z,15.25
2019-02-24T08:20:09.040Z,14.35
2019-02-24T08:22:38.499Z,14.43
2019-02-24T08:25:08.032Z,16.05
2019-02-24T08:27:37.226Z,15.18
2019-02-24T08:30:10.207Z,16.27
2019-02-24T08:32:39.751Z,15.80
2019-02-24T08:35:09.120Z,15.10
2019-02-24T08:37:38.573Z,15.18
2019-02-24T08:40:08.880Z,14.03
2019-02-24T08:42:57.879Z,14.40
2019-02-24T08:45:27.649Z,13.20
2019-02-24T08:47:56.899Z,14.03
2019-02-24T08:50:26.180Z,12.93
2019-02-24T08:52:55.702Z,13.00
2019-02-24T08:55:24.908Z,13.40
2019-02-24T08:57:54.260Z,12.20
2019-02-24T09:00:23.829Z,13.70
2019-02-24T09:02:53.502Z,12.35
2019-02-24T09:05:23.118Z,13.35
2019-02-24T09:07:52.406Z,14.13
2019-02-24T09:10:21.668Z,13.75
2019-02-24T09:12:51.349Z,13.18
2019-02-24T09:15:21.026Z,13.03
2019-02-24T09:17:50.549Z,11.83
2019-02-24T09:20:20.226Z,11.60
2019-02-24T09:22:49.850Z,12.35
2019-02-24T09:25:19.233Z,12.00
2019-02-24T09:27:49.038Z,12.15
2019-02-24T09:30:18.432Z,12.07
2019-02-24T09:32:47.953Z,10.85
2019-02-24T09:35:17.915Z,10.65
2019-02-24T09:37:47.385Z,9.35
2019-02-24T09:40:16.867Z,10.23
2019-02-24T09:42:46.226Z,9.43
2019-02-24T09:45:15.065Z,9.43
2019-02-24T09:47:47.018Z,10.50
2019-02-24T09:50:15.880Z,10.30
2019-02-24T09:52:45.094Z,10.55
2019-02-24T09:55:14.771Z,10.70
2019-02-24T09:57:44.227Z,9.90
2019-02-24T10:00:16.899Z,10.03
2019-02-24T10:02:46.187Z,9.70
2019-02-24T10:05:16.256Z,10.15
2019-02-24T10:07:45.779Z,10.75
2019-02-24T10:10:15.173Z,10.00
2019-02-24T10:12:44.750Z,10.08
2019-02-24T10:15:14.855Z,10.03
2019-02-24T10:17:44.045Z,9.78
2019-02-24T10:20:13.746Z,10.72
2019-02-24T10:22:43.108Z,11.05
2019-02-24T10:25:12.546Z,10.82
2019-02-24T10:27:41.909Z,10.98
2019-02-24T10:30:12.923Z,11.40
2019-02-24T10:32:42.115Z,10.20
2019-02-24T10:35:11.488Z,11.12
2019-02-24T10:37:40.819Z,10.75
2019-02-24T10:40:16.848Z,10.50
2019-02-24T10:42:46.047Z,10.60
2019-02-24T10:45:16.744Z,9.98
2019-02-24T10:47:46.095Z,9.78
2019-02-24T10:50:17.105Z,10.68
2019-02-24T10:52:46.558Z,8.80
2019-02-24T10:55:15.936Z,10.05
2019-02-24T10:57:45.448Z,10.00
2019-02-24T11:00:17.230Z,8.98
2019-02-24T11:02:46.492Z,8.83
2019-02-24T11:05:16.236Z,7.92
2019-02-24T11:07:45.690Z,8.88
2019-02-24T11:10:15.359Z,9.48
2019-02-24T11:12:44.884Z,8.85
2019-02-24T11:15:14.812Z,8.43
2019-02-24T11:17:44.465Z,8.40
2019-02-24T11:20:15.470Z,8.20
2019-02-24T11:22:44.726Z,8.08
2019-02-24T11:25:14.199Z,8.25
2019-02-24T11:27:43.743Z,8.50
2019-02-24T11:30:14.737Z,7.75
2019-02-24T11:32:44.092Z,7.83
2019-02-24T11:35:13.512Z,7.17
2019-02-24T11:37:42.982Z,7.25
2019-02-24T11:40:18.119Z,6.72
2019-02-24T11:42:47.494Z,6.40
2019-02-24T11:45:16.683Z,6.72
2019-02-24T11:47:46.142Z,6.25
2019-02-24T11:50:15.590Z,6.87
2019-02-24T11:52:45.136Z,6.40
2019-02-24T11:55:14.399Z,6.25
2019-02-24T11:57:43.749Z,6.15
2019-02-24T12:00:14.868Z,6.25
2019-02-24T12:02:44.331Z,6.55
2019-02-24T12:05:14.054Z,5.67
2019-02-24T12:07:43.411Z,5.87
2019-02-24T12:10:13.363Z,5.33
2019-02-24T12:12:42.865Z,5.22
2019-02-24T12:15:15.144Z,5.03
2019-02-24T12:17:44.490Z,5.05
2019-02-24T12:20:14.606Z,4.97
2019-02-24T12:22:44.050Z,5.17
2019-02-24T12:25:13.325Z,4.35
2019-02-24T12:27:42.655Z,4.87
2019-02-24T12:30:16.307Z,4.83
2019-02-24T12:32:45.551Z,4.47
2019-02-24T12:35:14.920Z,4.40
2019-02-24T12:37:44.244Z,4.35
2019-02-24T12:40:14.552Z,4.78
2019-02-24T12:42:43.847Z,4.33
2019-02-24T12:45:13.445Z,5.12
2019-02-24T12:47:42.979Z,4.10
2019-02-24T12:50:17.447Z,4.87
2019-02-24T12:52:46.781Z,5.12
2019-02-24T12:55:16.246Z,4.80
2019-02-24T12:57:45.415Z,4.60
2019-02-24T13:00:20.111Z,4.53
2019-02-24T13:05:18.117Z,4.83
2019-02-24T13:07:47.378Z,4.97
2019-02-24T13:10:17.557Z,4.70
2019-02-24T13:12:46.819Z,5.90
2019-02-24T13:15:16.530Z,6.53
2019-02-24T13:17:46.091Z,4.83
2019-02-24T13:20:15.336Z,3.60
2019-02-24T13:22:44.919Z,4.20
2019-02-24T13:25:14.715Z,3.87
2019-02-24T13:27:43.898Z,4.78
2019-02-24T13:30:14.834Z,3.65
2019-02-24T14:12:32.251Z,3.72
2019-02-24T14:15:01.698Z,3.80
2019-02-24T14:17:31.069Z,3.27
2019-02-24T14:20:00.350Z,3.22
2019-02-24T14:22:29.612Z,3.55
2019-02-24T14:24:59.182Z,4.50
2019-02-24T14:27:28.435Z,3.72
2019-02-24T14:29:58.566Z,3.60
2019-02-24T14:32:33.095Z,4.00
2019-02-24T14:34:59.374Z,4.20
2019-02-24T14:37:28.583Z,4.30
2019-02-24T14:39:58.030Z,3.83
2019-02-24T14:42:27.522Z,4.20
2019-02-24T14:44:56.859Z,4.50
2019-02-24T14:47:27.470Z,4.58
2019-02-24T14:49:56.733Z,3.95
2019-02-24T14:52:26.201Z,4.20
2019-02-24T14:54:55.660Z,4.15
2019-02-24T14:57:25.193Z,4.28
2019-02-24T14:59:54.484Z,4.62
2019-02-24T15:02:25.148Z,4.60
2019-02-24T15:04:54.515Z,4.42
2019-02-24T15:07:24.031Z,4.67
2019-02-24T15:09:53.531Z,4.65
2019-02-24T15:12:23.078Z,4.47
2019-02-24T15:14:52.274Z,5.12
2019-02-24T15:17:23.059Z,4.62
2019-02-24T15:19:52.968Z,4.30
2019-02-24T15:22:22.264Z,5.05
2019-02-24T15:24:51.945Z,4.67
2019-02-24T15:27:21.443Z,4.90
2019-02-24T15:29:50.958Z,4.90
2019-02-24T15:32:20.227Z,4.67
2019-02-24T15:34:49.424Z,4.62
2019-02-24T15:37:18.917Z,4.70
2019-02-24T15:39:48.240Z,4.50
2019-02-24T15:42:17.507Z,4.70
2019-02-24T15:44:47.762Z,4.40
2019-02-24T15:47:17.295Z,4.75
2019-02-24T15:49:46.552Z,4.92
2019-02-24T15:52:16.075Z,4.60
2019-02-24T15:54:45.323Z,4.40
2019-02-24T15:57:14.889Z,4.78
2019-02-24T15:59:45.399Z,4.40
2019-02-24T16:02:15.946Z,4.47
2019-02-24T16:04:45.321Z,4.53
2019-02-24T16:07:14.676Z,4.15
2019-02-24T16:09:43.928Z,4.20
2019-02-24T16:12:13.287Z,4.30
2019-02-24T16:14:42.537Z,4.00
2019-02-24T16:17:11.943Z,3.90
2019-02-24T16:19:41.410Z,4.00
2019-02-24T16:22:10.679Z,3.62
2019-02-24T16:24:39.962Z,4.03
2019-02-24T16:27:09.245Z,3.85
2019-02-24T16:29:38.578Z,4.12
2019-02-24T16:32:07.945Z,3.65
2019-02-24T16:34:37.196Z,3.60
2019-02-24T16:37:06.526Z,3.60
2019-02-24T16:39:35.801Z,3.65
2019-02-24T16:42:05.110Z,3.30
2019-02-24T16:44:34.551Z,3.67
2019-02-24T16:47:04.312Z,3.90
2019-02-24T16:49:33.864Z,4.42
2019-02-24T16:52:03.500Z,4.20
2019-02-24T16:54:32.743Z,4.08
2019-02-24T16:57:05.174Z,4.72
2019-02-24T16:59:32.949Z,5.25
2019-02-24T17:02:02.647Z,5.45
2019-02-24T17:04:31.897Z,4.95
2019-02-24T17:07:01.355Z,4.97
2019-02-24T17:09:30.682Z,4.95
2019-02-24T17:11:59.968Z,4.50
2019-02-24T17:14:29.195Z,5.25
2019-02-24T17:17:01.566Z,5.70
2019-02-24T17:19:29.703Z,6.85
2019-02-24T17:21:59.225Z,6.60
2019-02-24T17:24:28.417Z,6.87
2019-02-24T17:26:57.703Z,7.30
2019-02-24T17:29:26.970Z,6.60
2019-02-24T17:31:57.366Z,6.50
2019-02-24T17:34:26.718Z,7.37
2019-02-24T17:36:56.247Z,7.35
2019-02-24T17:39:26.123Z,6.45
2019-02-24T17:41:55.325Z,5.20
2019-02-24T17:44:24.512Z,5.72
2019-02-24T17:46:53.783Z,5.47
2019-02-24T17:49:24.354Z,5.53
2019-02-24T17:51:53.555Z,7.35
2019-02-24T17:54:23.138Z,8.73
2019-02-24T17:56:52.411Z,7.08
2019-02-24T17:59:21.586Z,7.12
2019-02-24T18:01:50.847Z,6.87
2019-02-24T18:04:20.344Z,7.30
2019-02-24T18:06:49.599Z,6.58
2019-02-24T18:09:19.155Z,19.37
2019-02-24T18:11:48.421Z,9.25
2019-02-24T18:14:17.617Z,8.00
2019-02-24T18:16:46.931Z,8.65
2019-02-24T18:19:16.373Z,9.60
2019-02-24T18:21:45.856Z,11.85
2019-02-24T18:24:15.115Z,9.00
2019-02-24T18:26:45.726Z,9.13
2019-02-24T18:29:15.167Z,9.05
2019-02-24T18:31:44.453Z,7.90
2019-02-24T18:34:14.177Z,7.53
2019-02-24T18:36:43.663Z,7.75
2019-02-24T18:39:13.207Z,8.48
2019-02-24T18:41:42.954Z,9.65
2019-02-24T18:44:12.417Z,10.13
2019-02-24T18:46:44.828Z,11.10
2019-02-24T18:49:14.073Z,9.48
2019-02-24T18:51:43.546Z,8.93
2019-02-24T18:54:12.875Z,9.73
2019-02-24T18:56:42.178Z,9.15
2019-02-24T18:59:11.501Z,6.70
2019-02-24T19:01:40.983Z,7.75
2019-02-24T19:04:10.495Z,8.98
2019-02-24T19:06:40.063Z,9.33
2019-02-24T19:09:09.256Z,10.32
2019-02-24T19:11:38.613Z,8.85
2019-02-24T19:14:07.885Z,8.08
2019-02-24T19:16:37.357Z,10.55
2019-02-24T19:19:06.719Z,12.23
2019-02-24T19:21:36.195Z,13.15
2019-02-24T19:24:05.486Z,11.85
2019-02-24T19:26:35.229Z,12.30
2019-02-24T19:29:04.693Z,12.35
2019-02-24T19:31:34.246Z,11.88
2019-02-24T19:34:06.615Z,11.63
2019-02-24T19:36:34.892Z,12.53
2019-02-24T19:39:04.824Z,12.93
2019-02-24T19:41:34.307Z,10.82
2019-02-24T19:44:03.779Z,9.93
2019-02-24T19:46:33.252Z,11.97
2019-02-24T19:49:02.499Z,12.35
2019-02-24T19:51:32.159Z,11.68
2019-02-24T19:54:02.195Z,11.45
2019-02-24T19:56:31.641Z,11.88
2019-02-24T19:59:01.205Z,11.78
2019-02-24T20:01:30.675Z,10.48
2019-02-24T20:04:00.211Z,10.98
2019-02-24T20:06:29.496Z,11.83
2019-02-24T20:08:58.960Z,11.63
2019-02-24T20:11:28.312Z,12.30
2019-02-24T20:13:57.570Z,12.18
2019-02-24T20:16:27.108Z,12.03
2019-02-24T20:18:56.369Z,11.15
2019-02-24T20:21:25.641Z,11.80
2019-02-24T20:23:54.904Z,11.73
2019-02-24T20:26:24.252Z,12.43
2019-02-24T20:28:53.993Z,11.68
2019-02-24T20:31:23.297Z,14.40
2019-02-24T20:33:52.772Z,33.70
2019-02-24T20:36:22.299Z,21.77
2019-02-24T20:38:51.822Z,17.25
2019-02-24T20:41:21.102Z,14.43
2019-02-24T20:43:50.416Z,13.25
2019-02-24T20:46:19.664Z,10.95
2019-02-24T20:48:49.019Z,11.55
2019-02-24T20:51:18.658Z,11.05
2019-02-24T20:53:48.242Z,11.15
2019-02-24T20:56:17.497Z,11.80
2019-02-24T20:58:46.771Z,11.38
2019-02-24T21:01:16.065Z,11.28
2019-02-24T21:03:45.414Z,11.03
2019-02-24T21:06:15.118Z,11.53
2019-02-24T21:08:44.436Z,11.15
2019-02-24T21:11:13.883Z,11.35
2019-02-24T21:13:43.426Z,11.63
2019-02-24T21:16:12.675Z,11.10
2019-02-24T21:18:42.042Z,11.38
2019-02-24T21:21:11.694Z,11.00
2019-02-24T21:23:41.273Z,10.18
2019-02-24T21:26:10.747Z,10.70
2019-02-24T21:28:39.976Z,11.70
2019-02-24T21:31:09.173Z,11.38
2019-02-24T21:33:38.436Z,11.97
2019-02-24T21:36:07.710Z,12.53
2019-02-24T21:38:37.240Z,11.20
2019-02-24T21:41:06.723Z,12.20
2019-02-24T21:43:36.042Z,11.03
2019-02-24T21:46:05.318Z,11.53
2019-02-24T21:48:34.826Z,12.47
2019-02-24T21:51:04.286Z,12.37
2019-02-24T21:53:33.656Z,13.08
2019-02-24T21:56:02.907Z,12.78
2019-02-24T21:58:32.266Z,11.97
2019-02-24T22:01:01.521Z,11.25
2019-02-24T22:03:31.248Z,11.57
2019-02-24T22:06:00.761Z,10.63
2019-02-24T22:08:30.230Z,10.35
2019-02-24T22:10:59.496Z,11.68
2019-02-24T22:13:29.032Z,10.98
2019-02-24T22:15:58.271Z,11.30
2019-02-24T22:18:27.630Z,14.85
2019-02-24T22:20:57.087Z,14.38
2019-02-24T22:23:26.465Z,14.28
2019-02-24T22:25:55.931Z,13.43
2019-02-24T22:28:25.193Z,12.68
2019-02-24T22:30:54.543Z,12.03
2019-02-24T22:33:23.738Z,12.05
2019-02-24T22:35:53.089Z,11.25
2019-02-24T22:38:22.667Z,11.18
2019-02-24T22:40:54.323Z,12.30
2019-02-24T22:43:23.044Z,13.15
2019-02-24T22:45:52.767Z,12.98
2019-02-24T22:48:21.987Z,12.75
2019-02-24T22:50:51.599Z,12.23
2019-02-24T22:53:21.094Z,12.47
2019-02-24T22:55:50.539Z,12.73
2019-02-24T22:58:19.741Z,14.03
2019-02-24T23:00:53.928Z,13.25
2019-02-24T23:03:31.469Z,14.60
2019-02-24T23:06:00.872Z,14.23
2019-02-24T23:08:30.193Z,14.83
2019-02-24T23:10:59.963Z,14.63
2019-02-24T23:13:29.441Z,14.68
2019-02-24T23:15:58.912Z,14.13
2019-02-24T23:18:28.379Z,13.45
2019-02-24T23:20:58.721Z,12.95
2019-02-24T23:23:28.393Z,12.80
2019-02-24T23:25:57.581Z,13.18
2019-02-24T23:28:26.911Z,13.08
2019-02-24T23:30:56.379Z,13.62
2019-02-24T23:33:25.583Z,14.07
2019-02-24T23:35:54.833Z,13.70
2019-02-24T23:38:24.601Z,13.78
2019-02-24T23:40:53.777Z,13.78
2019-02-24T23:43:23.438Z,13.15
2019-02-24T23:45:52.644Z,12.50
2019-02-24T23:48:21.975Z,12.28
2019-02-24T23:50:51.535Z,12.70
2019-02-24T23:53:21.031Z,12.65
2019-02-24T23:55:50.813Z,13.20
2019-02-24T23:58:20.684Z,13.18
